Time;durP1;ratioP1;P1;durP2;ratioP2;P2;SDS_P1;SDS_P2;PMS_P1;PMS_P2;Temp;Humidity;BMP_temperature;BMP_pressure;BME280_temperature;BME280_humidity;BME280_pressure;Samples;Min_cycle;Max_cycle;Signal;HPM_P1;HPM_P2
2021/07/04 00:01:58;;;;;;;7.07;5.57;;;;;;;19.38;78.52;99677.44;6248990;28;20057;-58
2021/07/04 00:04:58;;;;;;;;;;;;;;;19.28;80.52;99674.09;6248248;28;20116;-58
2021/07/04 00:07:59;;;;;;;9.98;5.45;;;;;;;19.32;79.74;99670.97;6249126;28;20330;-58
2021/07/04 00:11:08;;;;;;;9.00;5.67;;;;;;;19.28;80.13;99664.34;6247643;28;20044;-58
2021/07/04 00:14:09;;;;;;;6.45;5.25;;;;;;;19.29;79.37;99678.41;6248899;28;20129;-58
2021/07/04 00:17:10;;;;;;;8.40;6.10;;;;;;;19.19;80.94;99664.47;6247977;28;20130;-58
2021/07/04 00:20:13;;;;;;;7.43;5.50;;;;;;;19.17;80.93;99659.34;6248748;28;20045;-58
2021/07/04 00:23:15;;;;;;;8.23;5.90;;;;;;;19.16;81.71;99657.69;6248718;28;20061;-58
2021/07/04 00:26:16;;;;;;;8.50;5.72;;;;;;;19.01;81.82;99654.00;6231226;28;20041;-58
2021/07/04 00:29:17;;;;;;;8.80;5.73;;;;;;;19.05;80.80;99656.16;6247887;28;20039;-58
2021/07/04 00:32:18;;;;;;;10.60;6.03;;;;;;;19.07;80.39;99653.38;6248443;28;20041;-58
2021/07/04 00:35:21;;;;;;;7.47;5.60;;;;;;;19.04;80.04;99645.72;6248587;28;20531;-58
2021/07/04 00:38:22;;;;;;;7.57;5.80;;;;;;;18.92;80.54;99646.03;6248240;28;20069;-58
2021/07/04 00:41:23;;;;;;;8.87;6.43;;;;;;;18.92;81.10;99646.03;6247199;28;20071;-58
2021/07/04 00:44:23;;;;;;;7.07;5.93;;;;;;;18.79;82.62;99645.59;6248199;28;20095;-58
2021/07/04 00:47:24;;;;;;;8.20;5.90;;;;;;;18.71;85.13;99650.81;6248340;28;20136;-58
2021/07/04 00:50:28;;;;;;;12.27;5.97;;;;;;;18.68;85.49;99653.78;6246620;28;20046;-58
2021/07/04 00:53:29;;;;;;;8.93;6.38;;;;;;;18.58;84.80;99651.22;6246906;28;20433;-58
2021/07/04 00:56:30;;;;;;;10.47;6.70;;;;;;;18.59;83.47;99658.16;6248099;28;20045;-58
2021/07/04 00:59:31;;;;;;;12.57;6.38;;;;;;;18.54;83.38;99647.22;6248159;28;20045;-58
2021/07/04 01:02:32;;;;;;;9.13;6.67;;;;;;;18.56;83.17;99641.81;6247545;28;20495;-58
2021/07/04 01:05:35;;;;;;;8.38;6.10;;;;;;;18.47;83.66;99654.94;6247749;28;20308;-58
2021/07/04 01:08:36;;;;;;;7.60;6.05;;;;;;;18.56;82.84;99655.00;6247609;28;20131;-58
2021/07/04 01:11:37;;;;;;;10.02;6.40;;;;;;;18.53;82.99;99664.06;6247404;28;20615;-58
2021/07/04 01:14:38;;;;;;;7.03;6.00;;;;;;;18.45;83.15;99664.84;6246391;28;20037;-58
2021/07/04 01:17:39;;;;;;;9.15;6.47;;;;;;;18.43;84.21;99664.16;6247392;28;20580;-58
2021/07/04 01:20:40;;;;;;;8.25;6.20;;;;;;;18.41;84.57;99660.00;6247485;28;20046;-58
2021/07/04 01:23:41;;;;;;;7.90;5.90;;;;;;;18.43;84.53;99660.69;6247283;28;20048;-58
2021/07/04 01:26:42;;;;;;;9.60;6.43;;;;;;;18.45;84.33;99656.06;6247233;28;20614;-58
2021/07/04 01:29:43;;;;;;;10.60;6.80;;;;;;;18.41;84.46;99657.34;6246970;28;20090;-58
2021/07/04 01:32:44;;;;;;;7.43;6.10;;;;;;;18.48;84.71;99656.59;6246960;28;20037;-58
2021/07/04 01:35:45;;;;;;;11.85;6.22;;;;;;;18.52;85.28;99655.31;6245956;28;20041;-58
2021/07/04 01:38:46;;;;;;;10.93;6.25;;;;;;;18.55;84.18;99658.63;6246306;28;20049;-58
2021/07/04 01:41:46;;;;;;;10.57;6.57;;;;;;;18.55;82.93;99651.53;6229002;28;20041;-58
2021/07/04 01:44:47;;;;;;;9.77;6.30;;;;;;;18.60;82.42;99649.25;6245706;28;20037;-58
2021/07/04 01:47:49;;;;;;;10.48;6.10;;;;;;;18.57;80.55;99659.28;6245596;28;20038;-57
2021/07/04 01:50:50;;;;;;;;;;;;;;;18.57;79.74;99662.75;6246877;28;20034;-58
2021/07/04 01:53:51;;;;;;;9.18;6.35;;;;;;;18.58;80.17;99659.16;6245440;28;19928;-58
2021/07/04 01:56:52;;;;;;;11.37;6.90;;;;;;;18.60;80.09;99656.38;6229149;28;20041;-57
2021/07/04 01:59:53;;;;;;;8.20;6.05;;;;;;;18.70;79.84;99655.28;6246422;28;20060;-58
2021/07/04 02:02:56;;;;;;;11.32;5.63;;;;;;;18.69;79.69;99653.59;6245076;28;20093;-58
2021/07/04 02:05:57;;;;;;;10.43;6.10;;;;;;;18.71;78.88;99654.28;6246398;28;20587;-58
2021/07/04 02:08:58;;;;;;;8.97;6.13;;;;;;;18.63;78.72;99656.84;6246341;28;20041;-58
2021/07/04 02:11:59;;;;;;;7.35;5.53;;;;;;;18.68;78.09;99659.88;6246298;28;20037;-58
2021/07/04 02:15:00;;;;;;;10.50;5.68;;;;;;;18.66;77.82;99653.91;6245192;28;20041;-58
2021/07/04 02:18:06;;;;;;;7.97;5.32;;;;;;;18.61;77.72;99661.47;6244952;28;20553;-58
2021/07/04 02:21:07;;;;;;;11.30;6.05;;;;;;;18.60;78.47;99648.44;6244920;28;20123;-58
2021/07/04 02:24:08;;;;;;;12.63;6.23;;;;;;;18.63;78.24;99646.28;6244931;28;20048;-58
2021/07/04 02:27:11;;;;;;;8.45;6.00;;;;;;;18.63;78.54;99651.56;6246186;28;20037;-59
2021/07/04 02:30:12;;;;;;;9.60;6.00;;;;;;;18.58;78.37;99648.59;6245952;28;20053;-58
2021/07/04 02:33:14;;;;;;;9.70;6.15;;;;;;;18.61;78.27;99648.25;6228556;28;20037;-58
2021/07/04 02:36:15;;;;;;;8.45;6.10;;;;;;;18.61;78.27;99647.44;6246272;28;20076;-58
2021/07/04 02:39:17;;;;;;;7.40;6.07;;;;;;;18.67;77.88;99642.34;6244690;28;20408;-57
2021/07/04 02:42:17;;;;;;;8.90;6.03;;;;;;;18.71;77.95;99650.81;6244845;28;20534;-59
2021/07/04 02:45:18;;;;;;;9.10;6.53;;;;;;;18.71;78.21;99651.63;6244974;28;20049;-59
2021/07/04 02:48:20;;;;;;;8.67;6.40;;;;;;;18.66;78.76;99655.75;6246107;28;20054;-58
2021/07/04 02:51:21;;;;;;;8.63;5.97;;;;;;;18.70;78.14;99655.28;6247784;28;20048;-59
2021/07/04 02:54:21;;;;;;;8.05;6.03;;;;;;;18.66;79.17;99653.09;6249452;28;20049;-58
2021/07/04 02:57:22;;;;;;;9.40;6.30;;;;;;;18.72;79.63;99652.47;6249658;28;20048;-58
2021/07/04 03:00:25;;;;;;;10.35;6.57;;;;;;;18.77;78.87;99652.00;6250620;28;20049;-58
2021/07/04 03:03:26;;;;;;;9.77;6.35;;;;;;;18.73;79.11;99656.75;6250644;28;20424;-58
2021/07/04 03:06:27;;;;;;;9.13;6.23;;;;;;;18.77;79.12;99652.81;6249363;28;20107;-58
2021/07/04 03:09:27;;;;;;;10.87;7.03;;;;;;;18.81;79.14;99656.84;6249241;28;20037;-58
2021/07/04 03:12:28;;;;;;;9.53;6.20;;;;;;;18.81;79.32;99654.19;6250390;28;20480;-58
2021/07/04 03:15:29;;;;;;;8.90;5.90;;;;;;;18.82;82.17;99662.94;6250453;28;20056;-58
2021/07/04 03:18:30;;;;;;;8.20;6.10;;;;;;;18.79;80.70;99666.75;6250166;28;20041;-58
2021/07/04 03:21:30;;;;;;;10.40;6.30;;;;;;;18.88;81.69;99664.97;6248973;28;20045;-58
2021/07/04 03:24:31;;;;;;;10.03;6.10;;;;;;;18.90;81.30;99670.94;6250096;28;20045;-58
2021/07/04 03:27:32;;;;;;;9.23;6.82;;;;;;;18.84;79.96;99661.84;6250086;28;20053;-58
2021/07/04 03:30:33;;;;;;;9.48;6.93;;;;;;;18.89;80.77;99671.94;6249908;28;20090;-58
2021/07/04 03:33:34;;;;;;;9.83;7.17;;;;;;;18.82;81.12;99671.72;6248759;28;20037;-58
2021/07/04 03:36:35;;;;;;;12.17;7.30;;;;;;;18.86;82.43;99670.44;6248883;28;20049;-58
2021/07/04 03:39:36;;;;;;;13.70;7.80;;;;;;;18.89;81.17;99671.94;6249749;28;20049;-58
2021/07/04 03:42:41;;;;;;;10.65;7.93;;;;;;;18.88;80.89;99675.53;6248613;28;20052;-58
2021/07/04 03:45:41;;;;;;;13.25;7.32;;;;;;;18.95;82.39;99668.66;6249657;28;20488;-58
2021/07/04 03:48:42;;;;;;;13.33;8.50;;;;;;;18.99;82.89;99680.56;6249539;28;20063;-58
2021/07/04 03:51:43;;;;;;;9.43;7.73;;;;;;;18.98;81.97;99683.38;6248036;28;20048;-58
2021/07/04 03:54:44;;;;;;;9.80;7.73;;;;;;;19.01;82.72;99685.72;6248570;28;20064;-58
2021/07/04 03:57:44;;;;;;;10.30;7.47;;;;;;;19.02;82.33;99695.28;6248384;28;20038;-58
2021/07/04 04:00:45;;;;;;;13.53;7.50;;;;;;;19.05;82.08;99692.34;6247765;28;20059;-58
2021/07/04 04:03:48;;;;;;;14.00;7.32;;;;;;;19.02;82.71;99696.13;6248166;28;20067;-58
2021/07/04 04:06:48;;;;;;;11.77;7.30;;;;;;;19.06;82.10;99694.81;6249157;28;20037;-58
2021/07/04 04:09:52;;;;;;;13.55;7.47;;;;;;;19.07;81.48;99701.78;6248935;28;20050;-59
2021/07/04 04:12:52;;;;;;;11.82;8.48;;;;;;;19.07;82.98;99701.78;6247642;28;20076;-58
2021/07/04 04:15:53;;;;;;;9.10;7.93;;;;;;;19.08;83.53;99692.03;6249009;28;20041;-58
2021/07/04 04:18:54;;;;;;;20.47;8.63;;;;;;;18.93;86.66;99697.88;6248821;28;20046;-58
2021/07/04 04:21:54;;;;;;;12.80;8.03;;;;;;;18.82;87.85;99699.94;6247483;28;20052;-58
2021/07/04 04:24:55;;;;;;;13.67;8.80;;;;;;;18.89;88.15;99706.28;6247386;28;20049;-59
2021/07/04 04:27:56;;;;;;;12.13;8.40;;;;;;;18.94;88.31;99709.28;6247389;28;20492;-59
2021/07/04 04:30:57;;;;;;;11.97;8.30;;;;;;;18.91;87.80;99696.38;6248479;28;20069;-59
2021/07/04 04:33:57;;;;;;;10.37;7.77;;;;;;;18.87;87.22;99700.34;6248524;28;20489;-59
2021/07/04 04:36:59;;;;;;;16.05;8.73;;;;;;;18.85;87.61;99700.47;6247252;28;20045;-58
2021/07/04 04:40:00;;;;;;;;;;;;;;;18.75;87.97;99697.06;6247594;28;20045;-58
2021/07/04 04:43:01;;;;;;;10.60;7.45;;;;;;;18.86;87.63;99702.16;6248267;28;19933;-58
2021/07/04 04:46:02;;;;;;;14.82;8.07;;;;;;;18.90;87.23;99697.38;6248015;28;20562;-58
2021/07/04 04:49:03;;;;;;;13.30;7.45;;;;;;;18.88;86.80;99694.03;6247771;28;20037;-58
2021/07/04 04:52:04;;;;;;;8.75;7.03;;;;;;;18.90;87.29;99705.28;6246573;28;20408;-58
2021/07/04 04:55:08;;;;;;;10.02;7.80;;;;;;;18.95;86.74;99704.84;6230405;28;20045;-58
2021/07/04 04:58:09;;;;;;;9.73;6.95;;;;;;;18.98;87.59;99712.44;6247789;28;20041;-58
2021/07/04 05:01:10;;;;;;;10.87;7.73;;;;;;;18.95;87.62;99708.31;6246333;28;20515;-58
2021/07/04 05:04:11;;;;;;;11.00;6.50;;;;;;;18.91;86.18;99709.59;6247887;28;20046;-58
2021/07/04 05:07:11;;;;;;;8.77;7.10;;;;;;;18.98;85.81;99713.28;6247707;28;20056;-59
2021/07/04 05:10:12;;;;;;;8.23;6.40;;;;;;;19.11;86.36;99712.88;6247420;28;20127;-58
2021/07/04 05:13:14;;;;;;;11.50;7.13;;;;;;;19.14;86.98;99712.53;6246287;28;20080;-58
2021/07/04 05:16:14;;;;;;;10.33;6.83;;;;;;;19.12;85.59;99707.41;6247551;28;20042;-58
2021/07/04 05:19:15;;;;;;;11.07;7.25;;;;;;;19.17;84.51;99706.09;6247382;28;20116;-58
2021/07/04 05:22:16;;;;;;;13.40;6.80;;;;;;;19.26;84.02;99702.53;6247321;28;20041;-59
2021/07/04 05:25:17;;;;;;;7.83;5.50;;;;;;;19.32;84.08;99707.19;6245953;28;20096;-57
2021/07/04 05:28:18;;;;;;;8.43;6.25;;;;;;;19.29;82.93;99703.06;6213494;28;20151;-58
2021/07/04 05:31:20;;;;;;;6.70;6.03;;;;;;;19.35;81.67;99714.78;6246038;28;20049;-58
2021/07/04 05:34:20;;;;;;;11.03;6.23;;;;;;;19.38;82.03;99725.06;6246918;28;20089;-58
2021/07/04 05:37:21;;;;;;;10.63;6.57;;;;;;;19.41;80.40;99727.38;6247132;28;20051;-58
2021/07/04 05:40:22;;;;;;;8.87;5.93;;;;;;;19.48;81.51;99727.59;6245788;28;20045;-58
2021/07/04 05:43:23;;;;;;;13.00;6.13;;;;;;;19.47;80.60;99729.41;6246981;28;20077;-58
2021/07/04 05:46:24;;;;;;;9.07;5.97;;;;;;;19.60;80.94;99731.63;6245623;28;20385;-58
2021/07/04 05:49:25;;;;;;;10.00;6.10;;;;;;;19.66;81.87;99722.19;6246735;28;20048;-59
2021/07/04 05:52:26;;;;;;;8.75;5.75;;;;;;;19.71;82.23;99722.59;6245306;28;20053;-58
2021/07/04 05:55:26;;;;;;;6.73;5.63;;;;;;;19.79;80.79;99719.13;6245382;28;20503;-58
2021/07/04 05:58:29;;;;;;;9.82;5.85;;;;;;;19.78;80.18;99720.94;6246711;28;20069;-58
2021/07/04 06:01:30;;;;;;;10.20;6.20;;;;;;;19.79;82.16;99721.75;6245185;28;20064;-58
2021/07/04 06:04:31;;;;;;;7.20;5.40;;;;;;;19.73;81.50;99716.13;6246627;28;20049;-58
2021/07/04 06:07:32;;;;;;;9.70;6.00;;;;;;;19.71;80.19;99725.22;6246347;28;20066;-58
2021/07/04 06:10:33;;;;;;;16.50;6.00;;;;;;;19.77;79.48;99726.38;6246311;28;20120;-59
2021/07/04 06:13:34;;;;;;;7.53;5.22;;;;;;;19.77;80.97;99726.38;6246171;28;20161;-58
2021/07/04 06:16:35;;;;;;;11.83;5.77;;;;;;;19.77;79.66;99729.88;6244959;28;20496;-58
2021/07/04 06:19:36;;;;;;;8.03;5.47;;;;;;;19.80;80.59;99731.38;6246789;28;20496;-58
2021/07/04 06:22:37;;;;;;;9.83;5.77;;;;;;;19.79;78.33;99730.56;6228769;28;20057;-58
2021/07/04 06:25:38;;;;;;;6.57;5.70;;;;;;;19.85;78.67;99731.69;6245707;28;20054;-58
2021/07/04 06:28:38;;;;;;;8.70;6.13;;;;;;;19.97;78.90;99732.22;6245078;28;20068;-58
2021/07/04 06:31:39;;;;;;;8.50;5.90;;;;;;;20.01;78.50;99734.38;6246456;28;20042;-58
2021/07/04 06:34:40;;;;;;;8.80;6.50;;;;;;;20.01;77.98;99738.88;6246067;28;20411;-58
2021/07/04 06:37:43;;;;;;;8.17;6.13;;;;;;;20.04;77.00;99739.38;6235979;28;20483;-58
2021/07/04 06:40:44;;;;;;;9.57;6.10;;;;;;;20.08;77.59;99738.06;6231742;28;20053;-59
2021/07/04 06:43:44;;;;;;;9.90;7.43;;;;;;;20.09;74.58;99741.53;6224064;28;20045;-58
2021/07/04 06:46:45;;;;;;;12.60;7.07;;;;;;;20.11;74.49;99743.03;6233711;28;20064;-58
2021/07/04 06:49:46;;;;;;;12.87;8.53;;;;;;;20.13;74.73;99742.88;6245285;28;20140;-58
2021/07/04 06:52:48;;;;;;;10.40;7.80;;;;;;;20.26;73.19;99731.78;6237396;28;20042;-59
2021/07/04 06:55:50;;;;;;;8.73;5.20;;;;;;;20.27;71.30;99734.28;6221509;28;20551;-58
2021/07/04 06:58:51;;;;;;;7.40;5.85;;;;;;;20.38;75.24;99735.75;6221694;28;20048;-59
2021/07/04 07:01:51;;;;;;;7.20;5.30;;;;;;;20.42;73.83;99738.94;6234010;28;20049;-58
2021/07/04 07:04:53;;;;;;;8.63;5.57;;;;;;;20.41;72.64;99739.94;6246317;28;20396;-58
2021/07/04 07:07:54;;;;;;;8.80;5.20;;;;;;;20.35;73.52;99735.28;6225684;28;20042;-59
2021/07/04 07:10:55;;;;;;;8.70;5.37;;;;;;;20.32;71.50;99729.31;6221698;28;20109;-58
2021/07/04 07:13:55;;;;;;;9.70;5.70;;;;;;;20.34;72.80;99737.09;6222052;28;20046;-59
2021/07/04 07:16:56;;;;;;;7.53;5.57;;;;;;;20.28;73.04;99737.75;6245218;28;20050;-59
2021/07/04 07:19:57;;;;;;;9.70;5.63;;;;;;;20.28;72.13;99733.31;6245855;28;20129;-58
2021/07/04 07:22:58;;;;;;;9.23;5.20;;;;;;;20.26;74.39;99737.94;6229371;28;20129;-57
2021/07/04 07:25:59;;;;;;;7.10;5.00;;;;;;;20.29;73.08;99740.25;6237225;28;20476;-58
2021/07/04 07:29:00;;;;;;;8.47;5.97;;;;;;;20.35;72.98;99735.28;6244400;28;20052;-58
2021/07/04 07:32:02;;;;;;;9.52;5.82;;;;;;;20.40;73.95;99730.31;6245456;28;20045;-56
2021/07/04 07:35:04;;;;;;;6.85;5.55;;;;;;;20.44;71.61;99729.81;6238022;28;20068;-57
2021/07/04 07:38:05;;;;;;;8.98;5.20;;;;;;;20.53;73.24;99735.97;6228111;28;20042;-57
2021/07/04 07:41:06;;;;;;;7.00;5.57;;;;;;;20.67;72.67;99732.69;6225441;28;20041;-58
2021/07/04 07:44:07;;;;;;;6.50;5.67;;;;;;;20.75;72.18;99728.34;6236398;28;20295;-58
2021/07/04 07:47:09;;;;;;;8.07;6.13;;;;;;;20.82;71.40;99732.81;6226696;28;20069;-58
2021/07/04 07:50:10;;;;;;;9.77;5.97;;;;;;;20.83;75.34;99728.34;6249626;28;20071;-58
2021/07/04 07:53:12;;;;;;;7.95;6.07;;;;;;;20.86;76.99;99728.84;6249869;28;20053;-59
2021/07/04 07:56:13;;;;;;;9.43;6.30;;;;;;;20.83;74.41;99731.00;6248601;28;20041;-58
2021/07/04 07:59:14;;;;;;;11.90;6.83;;;;;;;20.95;75.85;99726.19;6249687;28;20128;-58
2021/07/04 08:02:16;;;;;;;8.53;6.63;;;;;;;21.06;73.98;99721.31;6230739;28;20345;-58
2021/07/04 08:05:16;;;;;;;7.90;6.70;;;;;;;21.17;71.96;99719.31;6224779;28;20480;-58
2021/07/04 08:08:17;;;;;;;11.57;6.17;;;;;;;21.30;74.27;99714.31;6223748;28;20058;-58
2021/07/04 08:11:18;;;;;;;11.90;5.90;;;;;;;21.43;74.75;99717.25;6231709;28;20041;-58
2021/07/04 08:14:19;;;;;;;8.33;6.03;;;;;;;21.58;74.47;99717.38;6247453;28;20045;-58
2021/07/04 08:17:20;;;;;;;12.50;6.17;;;;;;;21.68;73.17;99712.69;6248245;28;20485;-58
2021/07/04 08:20:21;;;;;;;8.00;6.35;;;;;;;21.81;70.26;99716.59;6247755;28;20519;-58
2021/07/04 08:23:22;;;;;;;9.33;6.20;;;;;;;21.86;70.12;99712.41;6247150;28;20037;-58
2021/07/04 08:26:23;;;;;;;10.52;6.10;;;;;;;21.95;70.75;99715.84;6246334;28;20149;-58
2021/07/04 08:29:24;;;;;;;12.80;5.13;;;;;;;22.04;68.74;99708.66;6249717;28;20096;-58
2021/07/04 08:32:25;;;;;;;8.73;5.03;;;;;;;22.18;67.37;99709.72;6248604;28;20037;-58
2021/07/04 08:35:26;;;;;;;8.73;5.80;;;;;;;22.30;65.25;99703.84;6229987;28;20054;-58
2021/07/04 08:38:27;;;;;;;9.97;5.17;;;;;;;22.47;70.42;99703.72;6226832;28;20599;-58
2021/07/04 08:41:28;;;;;;;8.53;5.70;;;;;;;22.69;68.80;99712.63;6229546;28;20283;-58
2021/07/04 08:44:29;;;;;;;7.87;5.37;;;;;;;22.77;70.26;99711.75;6224932;28;20501;-58
2021/07/04 08:47:30;;;;;;;9.43;5.75;;;;;;;22.95;66.10;99704.25;6224856;28;20072;-58
2021/07/04 08:50:31;;;;;;;9.70;6.18;;;;;;;23.25;64.63;99706.97;6247475;28;20053;-59
2021/07/04 08:53:32;;;;;;;11.40;6.13;;;;;;;23.24;64.22;99710.63;6245348;28;20080;-58
2021/07/04 08:56:34;;;;;;;9.77;6.10;;;;;;;23.25;63.41;99707.78;6242494;28;20034;-59
2021/07/04 08:59:38;;;;;;;;;;;;;;;23.17;57.75;99701.72;6246791;28;20377;-58
2021/07/04 09:02:39;;;;;;;7.88;4.53;;;;;;;23.21;60.42;99703.00;6247650;28;19969;-58
2021/07/04 09:05:43;;;;;;;7.10;4.40;;;;;;;23.19;58.91;99697.88;6247955;28;20048;-58
2021/07/04 09:08:44;;;;;;;5.72;3.65;;;;;;;23.16;52.99;99694.75;6247765;28;20127;-58
2021/07/04 09:12:05;;;;;;;6.60;3.90;;;;;;;23.19;55.27;99694.38;6247872;28;20610;-59
2021/07/04 09:15:17;;;;;;;6.88;4.07;;;;;;;23.10;55.73;99697.13;6247617;28;20073;-62
2021/07/04 09:18:18;;;;;;;5.20;3.85;;;;;;;23.11;56.52;99696.13;6247811;28;20041;-65
2021/07/04 09:21:24;;;;;;;7.67;4.10;;;;;;;23.23;56.21;99693.81;6246484;28;20419;-65
2021/07/04 09:24:30;;;;;;;6.05;4.32;;;;;;;23.33;56.79;99690.88;6247593;28;20144;-64
2021/07/04 09:27:31;;;;;;;7.20;4.38;;;;;;;23.30;52.38;99696.56;6247374;28;20049;-63
2021/07/04 09:30:39;;;;;;;7.50;3.70;;;;;;;23.41;55.53;99689.94;6246189;28;20052;-63
2021/07/04 09:33:40;;;;;;;10.32;4.30;;;;;;;23.54;54.31;99692.78;6247267;28;20072;-62
2021/07/04 09:36:41;;;;;;;7.13;4.22;;;;;;;23.71;56.20;99688.88;6247571;28;20531;-62
2021/07/04 09:39:42;;;;;;;9.00;4.55;;;;;;;23.78;55.03;99693.47;6246175;28;20068;-61
2021/07/04 09:43:00;;;;;;;10.90;4.27;;;;;;;23.81;55.28;99693.13;6247185;28;20045;-62
2021/07/04 09:46:06;;;;;;;7.28;4.70;;;;;;;23.80;54.03;99683.47;6247076;28;20053;-64
2021/07/04 09:49:07;;;;;;;7.60;4.63;;;;;;;23.76;54.74;99679.50;6247343;28;20056;-62
2021/07/04 09:52:22;;;;;;;5.77;4.50;;;;;;;23.97;56.85;99676.03;6246935;28;20142;-62
2021/07/04 09:55:23;;;;;;;8.77;4.82;;;;;;;24.08;54.23;99678.22;6246981;28;20041;-67
2021/07/04 09:58:24;;;;;;;7.00;4.53;;;;;;;24.25;50.84;99679.59;6246914;28;20099;-62
2021/07/04 10:01:35;;;;;;;9.87;4.40;;;;;;;24.57;48.17;99679.28;6246281;28;20057;-62
2021/07/04 10:04:36;;;;;;;5.18;3.95;;;;;;;24.77;50.57;99672.25;6247092;28;20052;-65
2021/07/04 10:07:37;;;;;;;;;;;;;;;24.87;47.91;99670.06;6246330;28;20052;-65
2021/07/04 10:10:38;;;;;;;5.63;4.25;;;;;;;25.05;48.03;99672.19;6246864;28;19920;-65
2021/07/04 10:13:41;;;;;;;11.30;4.63;;;;;;;25.08;49.03;99665.63;6246714;28;20476;-62
2021/07/04 10:16:44;;;;;;;7.53;4.20;;;;;;;24.99;47.08;99664.16;6246672;28;20041;-62
2021/07/04 10:19:48;;;;;;;7.25;4.05;;;;;;;24.64;46.21;99650.81;6243838;28;20049;-62
2021/07/04 10:22:49;;;;;;;6.57;4.50;;;;;;;24.80;53.77;99653.16;6242010;28;20044;-63
2021/07/04 10:25:51;;;;;;;8.00;3.95;;;;;;;24.96;48.88;99648.53;6239729;28;20045;-62
2021/07/04 10:28:56;;;;;;;4.88;3.97;;;;;;;25.01;49.78;99644.25;6236975;28;20102;-62
2021/07/04 10:32:09;;;;;;;7.40;3.90;;;;;;;25.01;49.17;99640.75;6246468;28;20050;-62
2021/07/04 10:35:10;;;;;;;9.77;4.05;;;;;;;25.14;49.43;99639.00;6245944;28;20731;-62
2021/07/04 10:38:15;;;;;;;;;;;;;;;25.04;46.58;99638.53;6246970;28;20049;-63
2021/07/04 10:41:23;;;;;;;5.57;3.97;;;;;;;24.74;47.97;99630.75;6240133;28;19925;-62
2021/07/04 10:44:41;;;;;;;8.57;4.00;;;;;;;24.76;50.03;99632.41;6246321;28;20622;-62
2021/07/04 10:47:42;;;;;;;5.35;4.10;;;;;;;24.99;45.49;99622.28;6246588;28;20084;-62
2021/07/04 10:51:08;;;;;;;9.50;4.70;;;;;;;25.22;48.09;99621.16;6231087;28;20037;-62
2021/07/04 10:54:09;;;;;;;5.45;3.88;;;;;;;25.56;45.68;99622.94;6221775;28;20275;-62
2021/07/04 10:57:32;;;;;;;8.80;3.90;;;;;;;25.86;47.71;99611.88;6221643;28;20049;-62
2021/07/04 11:00:37;;;;;;;5.72;3.97;;;;;;;25.97;47.94;99605.16;6221634;28;20058;-64
2021/07/04 11:03:38;;;;;;;6.90;4.05;;;;;;;25.82;45.66;99600.78;6236838;28;20050;-62
2021/07/04 11:06:58;;;;;;;7.32;4.10;;;;;;;25.65;46.64;99611.03;6234481;28;20464;-62
2021/07/04 11:09:59;;;;;;;6.90;3.95;;;;;;;25.48;47.21;99613.25;6224769;28;20033;-62
2021/07/04 11:13:13;;;;;;;7.60;3.97;;;;;;;25.63;47.45;99614.94;6224559;28;20057;-62
2021/07/04 11:16:19;;;;;;;5.60;3.53;;;;;;;25.96;45.56;99608.84;6240705;28;20057;-62
2021/07/04 11:19:20;;;;;;;6.00;4.63;;;;;;;25.65;45.57;99615.56;6225699;28;20048;-62
2021/07/04 11:22:53;;;;;;;7.32;3.70;;;;;;;25.92;45.17;99606.59;6226727;28;20046;-62
2021/07/04 11:25:55;;;;;;;7.00;4.03;;;;;;;25.80;48.36;99593.97;6226785;28;20069;-64
2021/07/04 11:29:10;;;;;;;5.50;3.92;;;;;;;26.10;46.52;99597.13;6244301;28;20488;-61
2021/07/04 11:32:23;;;;;;;6.72;4.05;;;;;;;26.14;47.35;99595.69;6226509;28;20049;-61
2021/07/04 11:35:24;;;;;;;6.50;3.72;;;;;;;26.45;45.83;99591.53;6237824;28;20408;-61
2021/07/04 11:38:28;;;;;;;4.88;3.45;;;;;;;26.51;44.01;99588.84;6250211;28;20073;-61
2021/07/04 11:41:30;;;;;;;8.02;3.90;;;;;;;26.91;42.69;99596.81;6230404;28;20052;-61
2021/07/04 11:44:30;;;;;;;5.25;3.30;;;;;;;27.27;40.67;99586.59;6248688;28;20045;-61
2021/07/04 11:47:31;;;;;;;5.57;3.50;;;;;;;28.42;40.14;99586.38;6249496;28;20473;-62
2021/07/04 11:50:51;;;;;;;5.55;3.72;;;;;;;29.99;35.67;99589.38;6248777;28;20042;-60
2021/07/04 11:54:13;;;;;;;6.38;3.85;;;;;;;30.27;36.12;99589.50;6231280;28;20046;-60
2021/07/04 11:57:30;;;;;;;8.18;4.10;;;;;;;28.61;39.42;99592.59;6244171;28;20065;-61
2021/07/04 12:00:32;;;;;;;6.85;4.05;;;;;;;30.41;36.03;99592.78;6248480;28;20060;-61
2021/07/04 12:03:33;;;;;;;;;;;;;;;31.49;33.61;99600.41;6248215;28;20037;-62
2021/07/04 12:06:33;;;;;;;5.82;4.10;;;;;;;31.94;32.62;99594.16;6249148;28;19921;-62
2021/07/04 12:09:34;;;;;;;;;;;;;;;31.28;33.85;99586.53;6249591;28;20045;-62
2021/07/04 12:12:37;;;;;;;5.93;3.50;;;;;;;29.99;35.07;99584.00;6249134;28;19925;-62
2021/07/04 12:15:38;;;;;;;7.72;3.70;;;;;;;29.22;38.05;99590.03;6249216;28;20052;-62
2021/07/04 12:18:40;;;;;;;7.70;3.40;;;;;;;28.63;39.16;99587.84;6247538;28;20049;-62
2021/07/04 12:21:41;;;;;;;5.82;3.72;;;;;;;28.04;39.28;99592.69;6249087;28;20076;-62
2021/07/04 12:24:44;;;;;;;8.95;3.95;;;;;;;27.73;41.61;99572.06;6246932;28;21029;-62
2021/07/04 12:28:09;;;;;;;6.85;4.15;;;;;;;27.32;41.15;99584.94;6248729;28;20136;-62
2021/07/04 12:31:10;;;;;;;6.80;4.20;;;;;;;27.56;40.90;99576.34;6248722;28;20040;-62
2021/07/04 12:34:12;;;;;;;7.93;4.10;;;;;;;27.26;42.66;99577.75;6248718;28;20041;-62
2021/07/04 12:37:13;;;;;;;10.40;4.38;;;;;;;27.11;42.84;99577.97;6246847;28;20049;-62
2021/07/04 12:40:26;;;;;;;6.70;4.03;;;;;;;27.37;44.05;99578.09;6246944;28;20168;-61
2021/07/04 12:43:33;;;;;;;7.75;4.03;;;;;;;27.12;44.88;99576.94;6247881;28;20053;-61
2021/07/04 12:46:37;;;;;;;9.05;3.92;;;;;;;27.36;42.45;99568.41;6247822;28;20094;-62
2021/07/04 12:49:37;;;;;;;6.93;3.53;;;;;;;27.45;42.86;99567.13;6247622;28;20324;-62
2021/07/04 12:52:55;;;;;;;7.03;4.35;;;;;;;27.56;41.90;99569.09;6246765;28;20049;-61
2021/07/04 12:55:56;;;;;;;4.85;3.58;;;;;;;27.52;42.83;99570.56;6247886;28;20042;-61
2021/07/04 12:59:07;;;;;;;7.25;4.05;;;;;;;27.45;41.76;99572.50;6223362;28;20056;-62
2021/07/04 13:02:08;;;;;;;6.25;4.45;;;;;;;27.28;41.65;99567.66;6223155;28;20424;-61
2021/07/04 13:05:09;;;;;;;;;;;;;;;27.41;40.51;99572.09;6223865;28;20404;-62
2021/07/04 13:08:11;;;;;;;13.50;4.00;;;;;;;27.27;39.22;99567.84;6238352;28;19921;-62
2021/07/04 13:11:19;;;;;;;4.97;3.58;;;;;;;27.37;40.36;99559.34;6238723;28;20100;-60
2021/07/04 13:14:19;;;;;;;7.95;3.90;;;;;;;27.35;42.71;99562.25;6205883;28;20054;-62
2021/07/04 13:17:31;;;;;;;8.50;3.78;;;;;;;26.92;40.33;99550.25;6223371;28;20056;-62
2021/07/04 13:20:31;;;;;;;6.53;3.90;;;;;;;27.16;44.98;99558.63;6223105;28;20115;-64
2021/07/04 13:23:32;;;;;;;8.13;4.05;;;;;;;27.13;42.75;99554.47;6223028;28;20473;-64
2021/07/04 13:26:34;;;;;;;5.57;3.65;;;;;;;27.34;44.48;99547.19;6223079;28;20373;-62
2021/07/04 13:29:40;;;;;;;6.13;3.80;;;;;;;27.20;43.88;99546.44;6222807;28;20227;-62
2021/07/04 13:32:54;;;;;;;7.90;3.85;;;;;;;27.35;41.81;99551.53;6222885;28;20060;-62
2021/07/04 13:35:55;;;;;;;7.97;4.15;;;;;;;27.43;40.56;99553.94;6222769;28;20444;-62
2021/07/04 13:39:00;;;;;;;7.38;3.95;;;;;;;27.47;41.74;99557.03;6222837;28;20084;-63
2021/07/04 13:42:01;;;;;;;5.75;3.40;;;;;;;27.37;41.97;99548.63;6222507;28;20052;-63
2021/07/04 13:45:06;;;;;;;;;;;;;;;27.65;40.29;99557.06;6222833;28;20132;-63
2021/07/04 13:48:13;;;;;;;8.90;4.03;;;;;;;27.28;40.81;99546.22;6220928;28;19928;-63
2021/07/04 13:51:14;;;;;;;5.50;3.72;;;;;;;27.04;42.19;99550.44;6222277;28;20045;-63
2021/07/04 13:54:15;;;;;;;9.00;3.50;;;;;;;26.83;42.68;99545.34;6237413;28;20508;-64
2021/07/04 13:57:16;;;;;;;7.90;4.38;;;;;;;26.68;43.62;99543.75;6237399;28;20551;-64
2021/07/04 14:00:19;;;;;;;5.00;3.80;;;;;;;26.69;41.54;99545.41;6223605;28;20054;-64
2021/07/04 14:03:21;;;;;;;8.75;3.65;;;;;;;26.71;41.42;99548.69;6222177;28;20398;-64
2021/07/04 14:06:22;;;;;;;7.20;3.65;;;;;;;26.65;41.43;99543.38;6222248;28;20070;-64
2021/07/04 14:09:23;;;;;;;7.22;4.05;;;;;;;26.54;43.99;99542.13;6245474;28;20053;-64
2021/07/04 14:12:24;;;;;;;5.10;3.70;;;;;;;26.53;44.50;99546.66;6246744;28;20049;-64
2021/07/04 14:15:25;;;;;;;6.30;3.67;;;;;;;26.67;43.97;99541.31;6246518;28;20056;-64
2021/07/04 14:18:25;;;;;;;6.35;3.60;;;;;;;26.61;45.00;99534.94;6246760;28;20050;-64
2021/07/04 14:21:26;;;;;;;5.88;3.90;;;;;;;26.53;44.88;99537.81;6246682;28;20133;-64